Flight Track Log - Related Links

Times and Time Zones

All times are in EDT time to prevent confusion due to time zone crossing. See the N960DL flight status page for this flight to view local times or setup timezone preferences in your user account.

Time Position Orientation Groundspeed Altitude Reporting Facility
EDT Latitude Longitude Course Direction KTS MPH feet Rate Location/Type
Thu 07:45:50 AM 44.8500 -93.1500 125° Southeast 207 238 2,600  Level Minneapolis TRACON
Thu 07:46:23 AM 44.8439 -93.0986 100° East 230 265 3,300 2,298 Climbing Minneapolis Center
Thu 07:47:00 AM 44.5903 -92.9450 145° Southeast  Level Estimated
Thu 07:47:24 AM 44.7975 -93.0161 128° Southeast 266 306 6,200  Level Minneapolis Center
Thu 07:48:00 AM 44.4929 -92.8533 137° Southeast  Level Estimated
Thu 07:48:26 AM 44.7403 -92.9442 138° Southeast 273 314 8,900  Level Minneapolis Center
Thu 07:49:00 AM 44.3955 -92.7619 133° Southeast  Level Estimated
Thu 07:49:27 AM 44.6628 -92.9292 172° South 280 322 11,400  Level Minneapolis Center
Thu 07:50:00 AM 44.2980 -92.6709 120° Southeast  Level Estimated
Thu 07:50:28 AM 44.5964 -92.8642 145° Southeast 311 358 13,400  Level Minneapolis Center
Thu 07:51:00 AM 44.2004 -92.5802 125° Southeast  Level Estimated
Thu 07:51:30 AM 44.5328 -92.7622 131° Southeast 354 407 14,500  Level Minneapolis Center
Thu 07:52:31 AM 44.4644 -92.6508 131° Southeast 378 435 16,700 2,066 Climbing Minneapolis Center
Thu 07:53:32 AM 44.4003 -92.5275 126° Southeast 391 450 18,700 1,951 Climbing Minneapolis Center
Thu 07:54:34 AM 44.3283 -92.3683 122° Southeast 404 465 20,700 1,707 Climbing Minneapolis Center
Thu 07:55:35 AM 44.2653 -92.2325 123° Southeast 417 480 22,200 1,561 Climbing Minneapolis Center
Thu 07:56:37 AM 44.1994 -92.0944 124° Southeast 426 490 23,900 1,220 Climbing Minneapolis Center
Thu 07:57:38 AM 44.1217 -91.9650 130° Southeast 435 501 24,700 787 Climbing Minneapolis Center
Thu 07:58:39 AM 44.0361 -91.8300 131° Southeast 459 528 25,500 1,122 Climbing Minneapolis Center
Thu 07:59:41 AM 43.9475 -91.6914 132° Southeast 477 549 27,000 1,548 Climbing Minneapolis Center
Thu 08:00:43 AM 43.8519 -91.5383 131° Southeast 478 550 28,700 1,463 Climbing Minneapolis Center
Thu 08:01:44 AM 43.7661 -91.4022 131° Southeast 475 547 30,000 1,171 Climbing Minneapolis Center
Thu 08:02:46 AM 43.6806 -91.2683 131° Southeast 470 541 31,100 1,073 Climbing Minneapolis Center
Thu 08:03:47 AM 43.5953 -91.1353 131° Southeast 467 537 32,200 973 Climbing Minneapolis Center
Thu 08:04:37 AM 43.5269 -91.0294 132° Southeast 465 535 32,900 429 Climbing Chicago Center
Thu 08:05:39 AM 43.4422 -90.9000 132° Southeast 459 528 33,000 48 Climbing Chicago Center
Thu 08:06:41 AM 43.3394 -90.7428 132° Southeast 463 533 33,000  Level Chicago Center
Thu 08:07:43 AM 43.2547 -90.6125 132° Southeast 461 531 33,000  Level Chicago Center
Thu 08:08:45 AM 43.1694 -90.4831 132° Southeast 459 528 33,000  Level Chicago Center
Thu 08:09:47 AM 43.0825 -90.3542 133° Southeast 463 533 33,000  Level Chicago Center
Thu 08:10:49 AM 42.9808 -90.2525 144° Southeast 462 532 33,000  Level Chicago Center
Thu 08:11:51 AM 42.8569 -90.2186 169° South 457 526 33,000  Level Chicago Center
Thu 08:12:53 AM 42.7067 -90.1814 170° South 460 529 33,000  Level Chicago Center
Thu 08:13:55 AM 42.5822 -90.1486 169° South 459 528 33,000  Level Chicago Center
Thu 08:14:57 AM 42.4578 -90.1169 169° South 457 526 33,000  Level Chicago Center
Thu 08:15:59 AM 42.3328 -90.0864 170° South 459 528 33,000  Level Chicago Center
Thu 08:17:00 AM 42.2086 -90.0550 169° South 456 525 33,000  Level Chicago Center
Thu 08:18:03 AM 42.0614 -90.0189 170° South 452 520 33,000  Level Chicago Center
Thu 08:19:05 AM 41.9383 -89.9894 170° South 452 520 33,000  Level Chicago Center
Thu 08:20:07 AM 41.8169 -89.9592 169° South 448 516 33,000  Level Chicago Center
Thu 08:21:08 AM 41.6978 -89.9283 169° South 448 516 33,000  Level Chicago Center
Thu 08:22:10 AM 41.5744 -89.8975 169° South 449 517 33,000  Level Chicago Center
Thu 08:23:12 AM 41.4250 -89.8606 169° South 453 521 33,000  Level Chicago Center
Thu 08:24:14 AM 41.2994 -89.8297 170° South 456 525 33,000  Level Chicago Center
Thu 08:25:16 AM 41.1750 -89.7986 169° South 456 525 33,000  Level Chicago Center
Thu 08:26:18 AM 41.0497 -89.7672 169° South 457 526 33,000  Level Chicago Center
Thu 08:27:20 AM 40.9108 -89.7336 170° South 455 524 33,000  Level Chicago Center
Thu 08:28:22 AM 40.7853 -89.7025 169° South 460 529 33,000  Level Chicago Center
Thu 08:29:24 AM 40.6594 -89.6719 170° South 465 535 33,000  Level Chicago Center
Thu 08:30:26 AM 40.5339 -89.6425 170° South 462 532 33,000  Level Chicago Center
Thu 08:31:28 AM 40.4114 -89.6150 170° South 454 522 33,000  Level Chicago Center
Thu 08:32:03 AM 40.3372 -89.5969 169° South 454 522 33,000  Level Kansas City Center
Thu 08:33:04 AM 40.2128 -89.5669 170° South 454 522 33,000  Level Kansas City Center
Thu 08:34:06 AM 40.0892 -89.5372 170° South 451 519 33,000  Level Kansas City Center
Thu 08:35:07 AM 39.9411 -89.5022 170° South 451 519 33,000  Level Kansas City Center
Thu 08:36:09 AM 39.8181 -89.4742 170° South 449 517 33,000  Level Kansas City Center
Thu 08:37:10 AM 39.6922 -89.4464 170° South 455 524 33,000  Level Kansas City Center
Thu 08:38:12 AM 39.5767 -89.4189 170° South 458 527 33,000  Level Kansas City Center
Thu 08:39:13 AM 39.4483 -89.3908 170° South 463 533 33,000  Level Kansas City Center
Thu 08:40:15 AM 39.2925 -89.3561 170° South 470 541 33,000  Level Kansas City Center
Thu 08:41:16 AM 39.1636 -89.3253 169° South 470 541 33,000  Level Kansas City Center
Thu 08:42:18 AM 39.0344 -89.2972 170° South 469 540 33,000  Level Kansas City Center
Thu 08:43:19 AM 38.8958 -89.2642 169° South 469 540 33,000  Level Kansas City Center
Thu 08:44:21 AM 38.7669 -89.2364 170° South 469 540 33,000  Level Kansas City Center
Thu 08:45:23 AM 38.6381 -89.2056 169° South 470 541 33,000  Level Kansas City Center
Thu 08:46:24 AM 38.4981 -89.1750 170° South 472 543 33,000  Level Kansas City Center
Thu 08:47:26 AM 38.3683 -89.1431 169° South 473 544 33,000  Level Kansas City Center
Thu 08:48:27 AM 38.2406 -89.1000 165° South 475 547 33,000  Level Kansas City Center
Thu 08:49:29 AM 38.1083 -89.0325 158° South 485 558 33,000  Level Kansas City Center
Thu 08:50:31 AM 38.0128 -88.9156 136° Southeast 488 562 33,000  Level Kansas City Center
Thu 08:51:32 AM 37.9142 -88.7972 137° Southeast 488 562 33,000  Level Kansas City Center
Thu 08:52:34 AM 37.8150 -88.6794 137° Southeast 486 559 33,000  Level Kansas City Center
Thu 08:53:35 AM 37.7192 -88.5611 136° Southeast 484 557 33,000  Level Kansas City Center
Thu 08:54:37 AM 37.6222 -88.4436 136° Southeast 483 556 33,000  Level Kansas City Center
Thu 08:55:39 AM 37.5256 -88.3239 135° Southeast 485 558 33,000  Level Kansas City Center
Thu 08:56:19 AM 37.4489 -88.2278 135° Southeast 492 566 33,000  Level Memphis Center
Thu 08:57:19 AM 37.3531 -88.1106 136° Southeast 486 559 33,000  Level Memphis Center
Thu 08:58:19 AM 37.2489 -87.9883 137° Southeast 492 566 33,000  Level Memphis Center
Thu 08:59:19 AM 37.1528 -87.8714 136° Southeast 492 566 33,000  Level Memphis Center
Thu 09:00:19 AM 37.0544 -87.7550 137° Southeast 492 566 33,000  Level Memphis Center
Thu 09:01:19 AM 36.9542 -87.6389 137° Southeast 487 560 33,000  Level Memphis Center
Thu 09:02:19 AM 36.8581 -87.5408 141° Southeast 487 560 33,000  Level Memphis Center
Thu 09:03:19 AM 36.7472 -87.4308 141° Southeast 499 574 33,000  Level Memphis Center
Thu 09:04:19 AM 36.6425 -87.3261 141° Southeast 499 574 33,000  Level Memphis Center
Thu 09:05:19 AM 36.5336 -87.2217 142° Southeast 499 574 33,000  Level Memphis Center
Thu 09:06:19 AM 36.4269 -87.1175 142° Southeast 494 568 33,000  Level Memphis Center
Thu 09:07:19 AM 36.3158 -87.0164 144° Southeast 494 568 33,000  Level Memphis Center
Thu 09:08:19 AM 36.2022 -86.9053 142° Southeast 505 581 33,000  Level Memphis Center
Thu 09:09:19 AM 36.0992 -86.7992 140° Southeast 502 578 33,000  Level Memphis Center
Thu 09:10:19 AM 35.9939 -86.6961 142° Southeast 496 571 33,000  Level Memphis Center
Thu 09:11:19 AM 35.8867 -86.5933 142° Southeast 496 571 33,000  Level Memphis Center
Thu 09:12:19 AM 35.7792 -86.4906 142° Southeast 496 571 33,000  Level Memphis Center
Thu 09:14:20 AM 35.5622 -86.2853 142° Southeast 499 574 33,000  Level Atlanta Center
Thu 09:15:20 AM 35.4556 -86.1831 142° Southeast 493 567 33,000  Level Atlanta Center
Thu 09:16:20 AM 35.3383 -86.0731 143° Southeast 493 567 33,000  Level Atlanta Center
Thu 09:17:20 AM 35.2275 -85.9711 143° Southeast 498 573 33,000 -500 Level Atlanta Center
Thu 09:18:20 AM 35.1306 -85.8850 144° Southeast 491 565 32,000 -1,100 Descending Atlanta Center
Thu 09:19:20 AM 35.0194 -85.7889 145° Southeast 491 565 30,800 -1,300 Descending Atlanta Center
Thu 09:20:20 AM 34.9081 -85.7003 147° Southeast 491 565 29,400 -1,650 Descending Atlanta Center
Thu 09:21:20 AM 34.7922 -85.6094 147° Southeast 491 565 27,500 -2,200 Descending Atlanta Center
Thu 09:22:20 AM 34.6808 -85.5214 147° Southeast 491 565 25,000 -2,500 Descending Atlanta Center
Thu 09:23:20 AM 34.5711 -85.4339 147° Southeast 480 552 22,500 -2,650 Descending Atlanta Center
Thu 09:24:20 AM 34.4719 -85.3489 145° Southeast 463 533 19,700 -2,550 Descending Atlanta Center
Thu 09:25:20 AM 34.3808 -85.2669 143° Southeast 438 504 17,400 -2,500 Descending Atlanta Center
Thu 09:26:20 AM 34.2897 -85.1878 144° Southeast 409 471 14,700 -2,200 Descending Atlanta Center
Thu 09:27:20 AM 34.1967 -85.1136 147° Southeast 403 464 13,000 -850 Descending Atlanta Center
Thu 09:28:20 AM 34.1031 -85.0522 151° Southeast 385 443 13,000 -200 Level Atlanta Center
Thu 09:29:20 AM 34.0139 -85.0111 159° South 349 402 12,600 -950 Descending Atlanta Center
Thu 09:30:20 AM 33.9347 -84.9728 158° South 316 364 11,100 -1,550 Descending Atlanta Center
Thu 09:31:20 AM 33.8556 -84.9394 161° South 305 351 9,500 -1,300 Descending Atlanta Center
Thu 09:32:20 AM 33.7742 -84.9361 178° South 299 344 8,500 -800 Descending Atlanta Center
Thu 09:33:20 AM 33.6992 -84.9353 179° South 271 312 7,900 -750 Descending Atlanta Center
Thu 09:34:20 AM 33.6367 -84.9122 163° South 241 277 7,000 -450 Descending Atlanta Center
Thu 09:35:20 AM 33.6289 -84.8372 97° East 200 230 7,000 -569 Level Atlanta Center
Thu 09:36:37 AM 33.6333 -84.7500 86° East 194 223 5,700 -920 Descending Atlanta TRACON
Thu 09:37:37 AM 33.6333 -84.6833 90° East 183 211 4,900 -900 Descending Atlanta TRACON
Thu 09:38:37 AM 33.6333 -84.6333 90° East 173 199 3,900 -1,000 Descending Atlanta TRACON

Login

Don't have an account? Register now (free) for customized features, flight alerts, and more!